createdAt,value
2019-04-16T00:02:51.379Z,100897.14
2019-04-16T00:06:04.424Z,100895.69
2019-04-16T00:09:24.706Z,100895.53
2019-04-16T00:12:31.479Z,100893.25
2019-04-16T00:15:33.346Z,100889.80
2019-04-16T00:18:35.351Z,100886.79
2019-04-16T00:21:48.387Z,100881.45
2019-04-16T00:24:50.449Z,100880.00
2019-04-16T00:27:52.319Z,100879.70
2019-04-16T00:30:54.234Z,100875.00
2019-04-16T00:33:56.111Z,100871.35
2019-04-16T00:36:58.016Z,100874.51
2019-04-16T00:39:59.947Z,100870.03
2019-04-16T00:43:02.040Z,100863.87
2019-04-16T00:46:08.052Z,100865.67
2019-04-16T00:49:09.155Z,100863.38
2019-04-16T00:52:11.071Z,100864.11
2019-04-16T00:55:14.578Z,100867.27
2019-04-16T00:58:19.485Z,100868.75
2019-04-16T01:01:20.820Z,100873.56
2019-04-16T01:04:22.761Z,100874.42
2019-04-16T01:07:24.699Z,100879.51
2019-04-16T01:10:26.590Z,100877.55
2019-04-16T01:13:28.635Z,100878.29
2019-04-16T01:16:33.002Z,100875.48
2019-04-16T01:19:34.466Z,100872.25
2019-04-16T01:22:36.346Z,100877.23
2019-04-16T01:25:38.318Z,100866.80
2019-04-16T01:28:50.805Z,100874.52
2019-04-16T01:32:00.711Z,100869.30
2019-04-16T01:35:06.264Z,100875.48
2019-04-16T01:38:16.008Z,100872.44
2019-04-16T01:41:21.674Z,100873.45
2019-04-16T01:44:23.076Z,100874.92
2019-04-16T01:47:25.060Z,100879.41
2019-04-16T01:50:27.116Z,100874.05
2019-04-16T01:53:29.012Z,100879.13
2019-04-16T01:56:31.023Z,100872.54
2019-04-16T01:59:35.618Z,100881.08
2019-04-16T02:02:36.844Z,100884.72
2019-04-16T02:05:38.726Z,100881.90
2019-04-16T02:08:40.702Z,100884.59
2019-04-16T02:11:42.559Z,100882.36
2019-04-16T02:14:44.585Z,100883.39
2019-04-16T02:17:46.540Z,100881.28
2019-04-16T02:20:48.443Z,100887.93
2019-04-16T02:23:50.418Z,100888.33
2019-04-16T02:26:54.802Z,100880.92
2019-04-16T02:29:58.513Z,100884.34
2019-04-16T02:33:00.537Z,100883.44
2019-04-16T02:36:02.753Z,100884.58
2019-04-16T02:39:07.307Z,100882.63
2019-04-16T02:42:09.236Z,100881.39
2019-04-16T02:45:12.382Z,100882.04
2019-04-16T02:48:16.646Z,100884.22
2019-04-16T02:51:29.114Z,100885.45
2019-04-16T02:54:34.476Z,100884.91
2019-04-16T02:57:44.616Z,100884.98
2019-04-16T03:00:50.474Z,100887.55
2019-04-16T03:04:02.995Z,100891.13
2019-04-16T03:07:05.002Z,100900.39
2019-04-16T03:10:12.286Z,100899.92
2019-04-16T03:13:11.625Z,100903.86
2019-04-16T03:16:21.226Z,100898.84
2019-04-16T03:19:25.075Z,100895.70
2019-04-16T03:22:26.981Z,100897.34
2019-04-16T03:25:29.625Z,100901.66
2019-04-16T03:28:31.661Z,100903.29
2019-04-16T03:31:33.560Z,100897.87
2019-04-16T03:34:35.465Z,100897.56
2019-04-16T03:37:37.408Z,100906.64
2019-04-16T03:40:39.348Z,100906.83
2019-04-16T03:43:41.344Z,100901.63
2019-04-16T03:46:45.970Z,100909.09
2019-04-16T03:49:47.199Z,100901.37
2019-04-16T03:52:49.200Z,100906.14
2019-04-16T03:55:51.179Z,100908.59
2019-04-16T03:58:54.110Z,100907.36
2019-04-16T04:01:56.058Z,100904.27
2019-04-16T04:05:01.664Z,100901.50
2019-04-16T04:08:02.238Z,100901.88
2019-04-16T04:11:09.057Z,100903.25
2019-04-16T04:14:08.026Z,100899.41
2019-04-16T04:17:10.350Z,100900.76
2019-04-16T04:20:14.666Z,100894.78
2019-04-16T04:23:17.186Z,100901.73
2019-04-16T04:26:19.460Z,100904.71
2019-04-16T04:29:24.774Z,100904.94
2019-04-16T04:32:25.343Z,100900.19
2019-04-16T04:35:27.258Z,100909.63
2019-04-16T04:38:29.237Z,100911.39
2019-04-16T04:41:31.773Z,100913.88
2019-04-16T04:44:36.949Z,100920.72
2019-04-16T04:47:37.702Z,100919.28
2019-04-16T04:50:39.609Z,100919.61
2019-04-16T04:53:41.548Z,100926.13
2019-04-16T04:56:43.436Z,100913.66
2019-04-16T04:59:45.473Z,100920.84
2019-04-16T05:02:48.382Z,100919.32
2019-04-16T05:05:53.370Z,100926.25
2019-04-16T05:08:57.576Z,100917.56
2019-04-16T05:11:59.881Z,100925.58
2019-04-16T05:15:03.900Z,100924.02
2019-04-16T05:18:06.130Z,100917.55
2019-04-16T05:21:09.684Z,100925.09
2019-04-16T05:24:11.993Z,100931.48
2019-04-16T05:27:13.906Z,100934.36
2019-04-16T05:30:20.420Z,100949.57
2019-04-16T05:33:19.827Z,100949.30
2019-04-16T05:36:22.126Z,100951.31
2019-04-16T05:39:28.371Z,100962.53
2019-04-16T05:42:30.274Z,100969.35
2019-04-16T05:45:34.531Z,100965.08
2019-04-16T05:48:36.509Z,100977.45
2019-04-16T05:51:38.695Z,100973.64
2019-04-16T05:55:01.574Z,100982.39
2019-04-16T05:58:04.006Z,100972.06
2019-04-16T06:01:13.115Z,100980.80
2019-04-16T06:04:14.453Z,100981.08
2019-04-16T06:07:16.384Z,100987.77
2019-04-16T06:10:19.197Z,100982.13
2019-04-16T06:13:29.352Z,100985.69
2019-04-16T06:16:53.403Z,100987.96
2019-04-16T06:20:01.916Z,100984.98
2019-04-16T06:23:06.933Z,100983.52
2019-04-16T06:26:27.588Z,100985.31
2019-04-16T06:29:47.113Z,100988.36
2019-04-16T06:32:51.393Z,100991.29
2019-04-16T06:35:55.442Z,100985.38
2019-04-16T06:39:01.982Z,100992.79
2019-04-16T06:42:22.505Z,100995.14
2019-04-16T06:45:28.115Z,100986.36
2019-04-16T06:48:49.673Z,100988.13
2019-04-16T06:51:53.565Z,100992.06
2019-04-16T06:55:06.558Z,100993.05
2019-04-16T06:58:12.587Z,100995.08
2019-04-16T07:01:37.341Z,100985.33
2019-04-16T07:04:42.781Z,100991.36
2019-04-16T07:07:47.022Z,100994.92
2019-04-16T07:10:56.583Z,100996.68
2019-04-16T07:13:58.610Z,100991.38
2019-04-16T07:17:00.904Z,100995.58
2019-04-16T07:20:06.703Z,100991.30
2019-04-16T07:23:08.774Z,100994.73
2019-04-16T07:26:13.861Z,100987.45
2019-04-16T07:29:16.437Z,100989.36
2019-04-16T07:32:35.653Z,100990.47
2019-04-16T07:35:48.600Z,100985.42
2019-04-16T07:39:05.020Z,100983.58
2019-04-16T07:42:14.127Z,100987.31
2019-04-16T07:45:35.665Z,100989.86
2019-04-16T07:48:45.372Z,100988.06
2019-04-16T07:51:55.246Z,100988.46
2019-04-16T07:54:59.063Z,100975.28
2019-04-16T07:58:01.093Z,100983.86
2019-04-16T08:01:03.259Z,100988.75
2019-04-16T08:04:05.232Z,100986.03
2019-04-16T08:07:07.182Z,100978.30
2019-04-16T08:10:09.742Z,100978.74
2019-04-16T08:13:19.170Z,100975.41
2019-04-16T08:16:21.165Z,100974.27
2019-04-16T08:19:36.046Z,100975.06
2019-04-16T08:22:27.126Z,100974.09
2019-04-16T08:25:33.907Z,100975.70
2019-04-16T08:28:37.300Z,100975.47
2019-04-16T08:31:44.487Z,100973.41
2019-04-16T08:34:44.936Z,100983.26
2019-04-16T08:37:49.128Z,100963.91
2019-04-16T08:40:50.935Z,100970.12
2019-04-16T08:43:52.913Z,100967.80
2019-04-16T08:46:54.936Z,100966.25
2019-04-16T08:49:57.555Z,100961.50
2019-04-16T08:52:59.477Z,100963.46
2019-04-16T08:56:01.532Z,100964.02
2019-04-16T08:59:03.407Z,100954.59
2019-04-16T09:02:05.485Z,100956.79
2019-04-16T09:05:11.322Z,100954.17
2019-04-16T09:08:22.768Z,100959.52
2019-04-16T09:11:24.813Z,100952.27
2019-04-16T09:14:28.619Z,100959.17
2019-04-16T09:17:32.378Z,100957.23
2019-04-16T09:20:37.783Z,100958.68
2019-04-16T09:23:39.761Z,100950.92
2019-04-16T09:26:43.861Z,100956.23
2019-04-16T09:29:54.075Z,100969.19
2019-04-16T09:33:00.719Z,100965.05
2019-04-16T09:36:06.591Z,100951.52
2019-04-16T09:39:16.592Z,100965.34
2019-04-16T09:42:19.270Z,100960.12
2019-04-16T09:45:24.279Z,100950.20
2019-04-16T09:48:25.214Z,100953.22
2019-04-16T09:51:27.232Z,100953.52
2019-04-16T09:54:29.153Z,100949.59
2019-04-16T09:57:32.429Z,100950.42
2019-04-16T10:00:39.515Z,100947.70
2019-04-16T10:03:43.104Z,100951.02
2019-04-16T10:06:45.060Z,100946.02
2019-04-16T10:09:46.974Z,100928.61
2019-04-16T10:12:48.908Z,100934.89
2019-04-16T10:15:50.820Z,100938.23
2019-04-16T10:18:52.771Z,100941.05
2019-04-16T10:21:54.829Z,100934.95
2019-04-16T10:25:07.861Z,100939.11
2019-04-16T10:28:14.613Z,100932.75
2019-04-16T10:31:18.426Z,100926.09
2019-04-16T10:34:20.535Z,100918.94
2019-04-16T10:37:22.443Z,100914.23
2019-04-16T10:40:26.527Z,100933.56
2019-04-16T10:43:45.459Z,100929.38
2019-04-16T10:46:52.159Z,100917.82
2019-04-16T10:49:55.885Z,100914.55
2019-04-16T10:53:02.427Z,100922.54
2019-04-16T10:56:22.894Z,100901.82
2019-04-16T10:59:26.698Z,100905.90
2019-04-16T11:02:31.755Z,100919.38
2019-04-16T11:05:38.270Z,100907.75
2019-04-16T11:08:40.233Z,100914.65
2019-04-16T11:11:42.198Z,100901.13
2019-04-16T11:14:44.258Z,100904.70
2019-04-16T11:17:46.138Z,100901.36
2019-04-16T11:20:48.068Z,100895.88
2019-04-16T11:23:49.980Z,100891.68
2019-04-16T11:26:51.848Z,100896.66
2019-04-16T11:29:53.793Z,100896.92
2019-04-16T11:32:57.962Z,100893.57
2019-04-16T11:36:00.005Z,100898.09
2019-04-16T11:39:01.997Z,100892.86
2019-04-16T11:42:04.981Z,100892.05
2019-04-16T11:45:07.739Z,100879.82
2019-04-16T11:48:09.683Z,100890.23
2019-04-16T11:51:11.679Z,100879.45
2019-04-16T11:54:13.806Z,100882.13
2019-04-16T11:57:16.340Z,100888.78
2019-04-16T12:00:26.343Z,100884.63
2019-04-16T12:03:47.314Z,100876.91
2019-04-16T12:06:54.216Z,100871.90
2019-04-16T12:10:14.988Z,100870.87
2019-04-16T12:13:21.959Z,100872.48
2019-04-16T12:16:38.113Z,100871.05
2019-04-16T12:19:58.600Z,100867.38
2019-04-16T12:23:02.447Z,100869.31
2019-04-16T12:26:12.571Z,100858.86
2019-04-16T12:29:25.644Z,100846.39
2019-04-16T12:32:32.540Z,100856.86
2019-04-16T12:35:36.388Z,100853.74
2019-04-16T12:38:46.086Z,100838.19
2019-04-16T12:41:59.874Z,100846.17
2019-04-16T12:45:19.151Z,100847.02
2019-04-16T12:48:39.685Z,100845.44
2019-04-16T12:51:43.412Z,100834.03
2019-04-16T12:55:02.556Z,100825.82
2019-04-16T12:58:06.392Z,100832.65
2019-04-16T13:01:19.925Z,100845.06
2019-04-16T13:04:23.976Z,100829.83
2019-04-16T13:07:30.601Z,100839.16
2019-04-16T13:10:34.446Z,100838.63
2019-04-16T13:13:55.237Z,100831.93
2019-04-16T13:17:05.030Z,100842.11
2019-04-16T13:20:10.899Z,100845.48
2019-04-16T13:23:31.251Z,100827.48
2019-04-16T13:26:45.199Z,100825.27
2019-04-16T13:29:47.102Z,100817.44
2019-04-16T13:32:49.044Z,100810.98
2019-04-16T13:35:50.995Z,100811.38
2019-04-16T13:38:54.793Z,100814.16
2019-04-16T13:41:56.739Z,100811.59
2019-04-16T13:45:15.276Z,100823.65
2019-04-16T13:48:15.940Z,100819.73
2019-04-16T13:51:14.867Z,100820.86
2019-04-16T13:54:17.592Z,100820.57
2019-04-16T13:57:21.472Z,100805.88
2019-04-16T14:00:28.259Z,100805.34
2019-04-16T14:03:30.266Z,100808.83
2019-04-16T14:06:32.429Z,100819.92
2019-04-16T14:09:34.473Z,100813.56
2019-04-16T14:12:42.124Z,100808.83
2019-04-16T14:15:44.838Z,100805.80
2019-04-16T14:18:47.081Z,100809.67
2019-04-16T14:21:48.968Z,100811.03
2019-04-16T14:24:50.913Z,100805.01
2019-04-16T14:27:55.368Z,100804.47
2019-04-16T14:30:56.799Z,100804.52
2019-04-16T14:34:15.954Z,100814.48
2019-04-16T14:37:18.588Z,100800.41
2019-04-16T14:40:24.235Z,100798.41
2019-04-16T14:43:29.537Z,100797.31
2019-04-16T14:46:31.863Z,100793.73
2019-04-16T14:49:33.930Z,100791.05
2019-04-16T14:52:35.884Z,100796.53
2019-04-16T14:55:58.760Z,100794.83
2019-04-16T14:59:03.443Z,100791.00
2019-04-16T15:02:08.638Z,100789.41
2019-04-16T15:05:21.718Z,100784.91
2019-04-16T15:08:31.280Z,100796.49
2019-04-16T15:11:51.428Z,100793.46
2019-04-16T15:14:55.130Z,100790.65
2019-04-16T15:18:08.165Z,100800.36
2019-04-16T15:21:30.300Z,100792.17
2019-04-16T15:24:50.894Z,100795.47
2019-04-16T15:28:06.938Z,100791.93
2019-04-16T15:31:27.324Z,100806.64
2019-04-16T15:34:43.017Z,100793.89
2019-04-16T15:37:57.912Z,100800.00
2019-04-16T15:41:18.420Z,100800.02
2019-04-16T15:44:24.659Z,100795.02
2019-04-16T15:47:32.374Z,100790.94
2019-04-16T15:50:39.517Z,100804.53
2019-04-16T15:53:50.564Z,100797.05
2019-04-16T15:57:11.614Z,100799.03
2019-04-16T16:00:32.721Z,100802.38
2019-04-16T16:03:36.974Z,100804.61
2019-04-16T16:06:48.761Z,100811.58
2019-04-16T16:09:52.594Z,100802.16
2019-04-16T16:12:54.800Z,100810.20
2019-04-16T16:15:56.762Z,100816.00
2019-04-16T16:18:58.747Z,100811.61
2019-04-16T16:22:00.665Z,100809.96
2019-04-16T16:25:06.096Z,100813.27
2019-04-16T16:28:08.197Z,100807.82
2019-04-16T16:31:10.175Z,100812.81
2019-04-16T16:34:12.108Z,100814.78
2019-04-16T16:37:14.170Z,100819.53
2019-04-16T16:40:16.233Z,100832.03
2019-04-16T16:43:18.396Z,100820.70
2019-04-16T16:46:55.700Z,100832.90
2019-04-16T16:49:44.527Z,100828.51
2019-04-16T16:52:54.467Z,100830.22
2019-04-16T16:55:59.113Z,100824.97
2019-04-16T16:59:05.912Z,100826.38
2019-04-16T17:02:18.642Z,100823.92
2019-04-16T17:05:25.380Z,100824.50
2019-04-16T17:08:30.168Z,100822.88
2019-04-16T17:11:31.167Z,100838.94
2019-04-16T17:14:36.460Z,100827.64
2019-04-16T17:17:37.250Z,100832.36
2019-04-16T17:20:41.337Z,100830.95
2019-04-16T17:23:43.160Z,100836.77
2019-04-16T17:26:47.000Z,100845.60
2019-04-16T17:29:49.721Z,100843.69
2019-04-16T17:32:52.792Z,100850.31
2019-04-16T17:35:54.905Z,100856.38
2019-04-16T17:38:56.877Z,100858.29
2019-04-16T17:42:05.046Z,100859.67
2019-04-16T17:45:26.091Z,100859.91
2019-04-16T17:48:39.123Z,100863.46
2019-04-16T17:51:48.381Z,100868.66
2019-04-16T17:54:59.088Z,100874.14
2019-04-16T17:58:09.346Z,100872.45
2019-04-16T18:01:15.094Z,100873.73
2019-04-16T18:04:37.527Z,100877.30
2019-04-16T18:07:41.308Z,100884.69
2019-04-16T18:10:47.828Z,100884.92
2019-04-16T18:13:57.380Z,100887.64
2019-04-16T18:17:04.595Z,100895.28
2019-04-16T18:20:27.111Z,100897.70
2019-04-16T18:23:47.825Z,100909.48
2019-04-16T18:27:08.259Z,100915.70
2019-04-16T18:30:14.210Z,100912.85
2019-04-16T18:33:19.777Z,100917.42
2019-04-16T18:36:23.504Z,100926.67
2019-04-16T18:39:37.216Z,100930.16
2019-04-16T18:42:50.257Z,100940.00
2019-04-16T18:46:08.655Z,100937.98
2019-04-16T18:49:18.240Z,100938.95
2019-04-16T18:52:20.201Z,100947.89
2019-04-16T18:55:22.867Z,100946.66
2019-04-16T18:58:26.514Z,100947.34
2019-04-16T19:01:32.648Z,100952.49
2019-04-16T19:04:35.193Z,100949.95
2019-04-16T19:07:37.158Z,100956.42
2019-04-16T19:10:39.682Z,100965.91
2019-04-16T19:13:42.785Z,100964.69
2019-04-16T19:16:47.704Z,100967.04
2019-04-16T19:19:53.286Z,100973.97
2019-04-16T19:22:55.283Z,100973.28
2019-04-16T19:25:57.459Z,100976.98
2019-04-16T19:28:59.746Z,100977.16
2019-04-16T19:32:03.477Z,100989.36
2019-04-16T19:35:10.111Z,100992.52
2019-04-16T19:38:12.040Z,100998.94
2019-04-16T19:41:14.396Z,101001.47
2019-04-16T19:44:16.356Z,101004.67
2019-04-16T19:47:18.355Z,101002.69
2019-04-16T19:50:20.951Z,101011.34
2019-04-16T19:53:24.769Z,101004.66
2019-04-16T19:56:27.366Z,101007.78
2019-04-16T19:59:29.360Z,101014.19
2019-04-16T20:02:33.957Z,101019.24
2019-04-16T20:05:36.112Z,101017.80
2019-04-16T20:08:39.963Z,101020.70
2019-04-16T20:11:43.590Z,101023.02
2019-04-16T20:14:47.499Z,101012.75
2019-04-16T20:17:52.487Z,101019.77
2019-04-16T20:20:55.395Z,101016.63
2019-04-16T20:23:57.565Z,101017.88
2019-04-16T20:27:04.886Z,101013.91
2019-04-16T20:30:06.234Z,101016.46
2019-04-16T20:33:08.498Z,101014.69
2019-04-16T20:36:10.458Z,101017.30
2019-04-16T20:39:12.322Z,101011.20
2019-04-16T20:42:15.833Z,101022.23
2019-04-16T20:45:20.134Z,101024.56
2019-04-16T20:48:22.083Z,101019.50
2019-04-16T20:51:26.535Z,101019.31
2019-04-16T20:54:30.629Z,101017.59
2019-04-16T20:57:32.665Z,101018.00
2019-04-16T21:00:42.286Z,101020.31
2019-04-16T21:03:43.905Z,101019.70
2019-04-16T21:06:45.880Z,101019.89
2019-04-16T21:09:47.832Z,101023.25
2019-04-16T21:12:49.805Z,101016.06
2019-04-16T21:15:51.743Z,101026.93
2019-04-16T21:18:53.656Z,101033.94
2019-04-16T21:21:57.952Z,101037.01
2019-04-16T21:24:59.620Z,101044.45
2019-04-16T21:28:15.631Z,101043.87
2019-04-16T21:31:19.346Z,101054.80
2019-04-16T21:34:29.648Z,101052.83
2019-04-16T21:37:34.488Z,101057.86
2019-04-16T21:40:36.522Z,101063.17
2019-04-16T21:43:39.713Z,101062.73
2019-04-16T21:46:42.350Z,101067.59
2019-04-16T21:49:45.759Z,101059.78
2019-04-16T21:52:48.242Z,101065.62
2019-04-16T21:55:50.183Z,101069.28
2019-04-16T21:58:52.203Z,101072.69
2019-04-16T22:01:54.523Z,101069.59
2019-04-16T22:04:57.537Z,101063.39
2019-04-16T22:07:59.576Z,101068.98
2019-04-16T22:11:01.798Z,101068.08
2019-04-16T22:14:03.856Z,101068.99
2019-04-16T22:17:05.824Z,101066.72
2019-04-16T22:20:07.929Z,101070.44
2019-04-16T22:23:09.931Z,101070.36
2019-04-16T22:26:11.880Z,101075.41
2019-04-16T22:29:15.645Z,101066.56
2019-04-16T22:32:17.727Z,101073.05
2019-04-16T22:35:19.824Z,101078.52
2019-04-16T22:38:21.812Z,101073.01
2019-04-16T22:41:34.596Z,101076.11
2019-04-16T22:44:38.336Z,101080.11
2019-04-16T22:47:42.099Z,101079.12
2019-04-16T22:50:43.997Z,101076.19
2019-04-16T22:53:46.485Z,101085.28
2019-04-16T22:57:01.921Z,101086.23
2019-04-16T23:00:11.751Z,101082.83
2019-04-16T23:03:16.634Z,101080.67
2019-04-16T23:06:20.076Z,101078.93
2019-04-16T23:09:23.906Z,101078.55
2019-04-16T23:12:28.045Z,101073.30
2019-04-16T23:15:29.638Z,101071.73
2019-04-16T23:18:31.529Z,101067.31
2019-04-16T23:21:33.398Z,101076.86
2019-04-16T23:24:35.435Z,101078.22
2019-04-16T23:27:38.191Z,101077.27
2019-04-16T23:30:40.956Z,101081.73
2019-04-16T23:33:42.896Z,101082.36
2019-04-16T23:36:48.571Z,101082.13
2019-04-16T23:39:48.627Z,101081.59
2019-04-16T23:42:54.876Z,101079.48
2019-04-16T23:46:15.478Z,101075.65
2019-04-16T23:49:34.719Z,101067.92
2019-04-16T23:52:38.480Z,101064.54
2019-04-16T23:56:00.331Z,101058.66
2019-04-16T23:59:13.410Z,101062.14
